createdAt,value
2024-03-04T00:01:13.790Z,15.02
2024-03-04T00:03:42.607Z,14.97
2024-03-04T00:06:11.350Z,22.85
2024-03-04T00:08:39.607Z,30.63
2024-03-04T00:11:08.945Z,33.15
2024-03-04T00:13:38.794Z,26.92
2024-03-04T00:16:08.125Z,41.83
2024-03-04T00:18:37.525Z,35.83
2024-03-04T00:21:06.573Z,31.70
2024-03-04T00:23:35.092Z,36.95
2024-03-04T00:26:03.547Z,43.72
2024-03-04T00:28:33.160Z,43.00
2024-03-04T00:31:01.352Z,41.05
2024-03-04T00:33:31.402Z,37.30
2024-03-04T00:36:00.812Z,34.38
2024-03-04T00:38:29.263Z,41.20
2024-03-04T00:40:57.322Z,50.33
2024-03-04T00:43:25.398Z,40.45
2024-03-04T00:45:53.843Z,42.50
2024-03-04T00:48:21.905Z,44.88
2024-03-04T00:50:50.684Z,48.92
2024-03-04T00:53:20.200Z,49.42
2024-03-04T00:55:48.681Z,52.00
2024-03-04T00:58:16.893Z,44.90
2024-03-04T01:00:45.048Z,38.85
2024-03-04T01:03:13.145Z,45.38
2024-03-04T01:05:41.212Z,43.80
2024-03-04T01:08:11.137Z,40.97
2024-03-04T01:10:40.690Z,44.30
2024-03-04T01:13:09.129Z,47.53
2024-03-04T01:15:37.720Z,50.17
2024-03-04T01:18:06.577Z,43.85
2024-03-04T01:20:34.846Z,52.80
2024-03-04T01:23:02.898Z,43.55
2024-03-04T01:25:30.976Z,41.90
2024-03-04T01:28:00.474Z,56.15
2024-03-04T01:30:28.707Z,56.03
2024-03-04T01:32:57.716Z,47.63
2024-03-04T01:35:25.785Z,44.42
2024-03-04T01:37:54.033Z,44.17
2024-03-04T01:40:22.305Z,47.15
2024-03-04T01:42:50.391Z,42.25
2024-03-04T01:45:25.610Z,43.95
2024-03-04T01:47:55.151Z,45.53
2024-03-04T01:50:27.585Z,42.90
2024-03-04T01:52:57.991Z,47.88
2024-03-04T01:55:26.816Z,58.28
2024-03-04T01:57:55.716Z,50.47
2024-03-04T02:00:26.556Z,85.32
2024-03-04T02:02:56.400Z,68.30
2024-03-04T02:05:24.565Z,64.70
2024-03-04T02:07:52.803Z,72.40
2024-03-04T02:10:21.015Z,71.75
2024-03-04T02:12:49.556Z,81.18
2024-03-04T02:15:17.728Z,86.32
2024-03-04T02:17:47.507Z,106.63
2024-03-04T02:20:17.703Z,87.95
2024-03-04T02:22:47.544Z,101.45
2024-03-04T02:25:15.790Z,98.53
2024-03-04T02:27:44.251Z,109.50
2024-03-04T02:30:13.878Z,127.05
2024-03-04T02:32:42.791Z,111.05
2024-03-04T02:35:11.058Z,95.20
2024-03-04T02:37:39.703Z,116.78
2024-03-04T02:40:10.912Z,114.78
2024-03-04T02:42:39.923Z,103.75
2024-03-04T02:45:08.712Z,105.78
2024-03-04T02:47:36.869Z,97.15
2024-03-04T02:50:06.618Z,112.35
2024-03-04T02:52:34.879Z,141.85
2024-03-04T02:55:03.799Z,113.97
2024-03-04T02:57:33.448Z,120.70
2024-03-04T03:00:02.158Z,112.95
2024-03-04T03:02:30.581Z,123.38
2024-03-04T03:04:58.948Z,106.07
2024-03-04T03:07:27.041Z,116.63
2024-03-04T03:09:55.423Z,121.85
2024-03-04T03:12:23.528Z,104.68
2024-03-04T03:14:52.927Z,116.68
2024-03-04T03:17:21.523Z,101.03
2024-03-04T03:19:49.677Z,93.93
2024-03-04T03:22:17.825Z,97.93
2024-03-04T03:24:45.969Z,91.35
2024-03-04T03:27:14.075Z,97.88
2024-03-04T03:29:42.303Z,99.68
2024-03-04T03:32:11.801Z,94.07
2024-03-04T03:34:39.973Z,81.28
2024-03-04T03:37:08.123Z,91.32
2024-03-04T03:39:36.322Z,87.60
2024-03-04T03:42:08.830Z,90.10
2024-03-04T03:44:36.952Z,96.70
2024-03-04T03:47:05.143Z,81.82
2024-03-04T03:49:35.542Z,79.72
2024-03-04T03:52:04.205Z,89.63
2024-03-04T03:54:33.962Z,96.35
2024-03-04T03:57:02.007Z,99.88
2024-03-04T03:59:30.069Z,95.90
2024-03-04T04:01:58.599Z,93.85
2024-03-04T04:04:27.082Z,86.30
2024-03-04T04:06:56.876Z,94.85
2024-03-04T04:09:24.976Z,99.13
2024-03-04T04:11:53.179Z,102.60
2024-03-04T04:14:21.370Z,83.45
2024-03-04T04:16:50.582Z,90.20
2024-03-04T04:19:18.702Z,95.35
2024-03-04T04:21:47.123Z,85.32
2024-03-04T04:24:16.602Z,94.20
2024-03-04T04:26:45.451Z,79.32
2024-03-04T04:29:13.523Z,95.97
2024-03-04T04:31:42.265Z,78.90
2024-03-04T04:34:10.513Z,91.47
2024-03-04T04:36:38.894Z,97.57
2024-03-04T04:39:07.033Z,82.53
2024-03-04T04:41:37.906Z,87.63
2024-03-04T04:44:06.405Z,84.38
2024-03-04T04:46:34.957Z,90.63
2024-03-04T04:49:03.121Z,97.05
2024-03-04T04:51:32.053Z,82.28
2024-03-04T04:54:00.426Z,99.00
2024-03-04T04:56:29.802Z,90.25
2024-03-04T04:58:59.749Z,89.82
2024-03-04T05:01:28.390Z,104.65
2024-03-04T05:04:14.767Z,97.75
2024-03-04T05:06:45.748Z,88.55
2024-03-04T05:09:14.346Z,106.40
2024-03-04T05:11:42.660Z,101.43
2024-03-04T05:14:12.695Z,97.82
2024-03-04T05:16:40.893Z,110.03
2024-03-04T05:19:09.137Z,93.53
2024-03-04T05:21:37.317Z,102.97
2024-03-04T05:24:06.002Z,95.80
2024-03-04T05:26:34.194Z,106.30
2024-03-04T05:29:02.462Z,89.82
2024-03-04T05:31:32.173Z,104.57
2024-03-04T05:34:02.172Z,95.28
2024-03-04T05:36:30.385Z,87.05
2024-03-04T05:38:58.478Z,90.28
2024-03-04T05:41:26.777Z,89.68
2024-03-04T05:43:54.924Z,78.80
2024-03-04T05:46:23.469Z,88.32
2024-03-04T05:48:53.013Z,81.65
2024-03-04T05:51:21.131Z,84.28
2024-03-04T05:53:49.459Z,74.75
2024-03-04T05:56:17.989Z,87.82
2024-03-04T05:58:46.849Z,81.40
2024-03-04T06:01:16.468Z,80.47
2024-03-04T06:03:45.036Z,82.07
2024-03-04T06:06:14.944Z,77.70
2024-03-04T06:08:43.993Z,85.55
2024-03-04T06:11:12.085Z,69.22
2024-03-04T06:13:40.223Z,81.63
2024-03-04T06:16:08.675Z,86.25
2024-03-04T06:18:37.170Z,84.38
2024-03-04T06:21:07.319Z,80.57
2024-03-04T06:23:37.445Z,89.45
2024-03-04T06:26:10.194Z,71.07
2024-03-04T06:28:38.792Z,60.67
2024-03-04T06:31:07.852Z,64.22
2024-03-04T06:33:47.950Z,73.03
2024-03-04T06:36:22.132Z,64.25
2024-03-04T06:38:52.433Z,58.80
2024-03-04T06:41:20.740Z,59.70
2024-03-04T06:43:48.984Z,60.17
2024-03-04T06:46:17.723Z,57.90
2024-03-04T06:48:45.992Z,60.45
2024-03-04T06:51:14.859Z,47.00
2024-03-04T06:53:43.008Z,50.50
2024-03-04T06:56:14.018Z,46.75
2024-03-04T06:58:42.301Z,52.58
2024-03-04T07:01:10.491Z,45.13
2024-03-04T07:03:40.625Z,52.05
2024-03-04T07:06:14.949Z,46.38
2024-03-04T07:08:43.475Z,46.67
2024-03-04T07:11:13.569Z,53.00
2024-03-04T07:13:42.590Z,49.45
2024-03-04T07:16:14.033Z,52.95
2024-03-04T07:18:42.400Z,40.28
2024-03-04T07:21:10.568Z,46.78
2024-03-04T07:23:41.106Z,46.55
2024-03-04T07:26:10.957Z,48.63
2024-03-04T07:28:41.955Z,43.65
2024-03-04T07:31:10.376Z,38.75
2024-03-04T07:33:38.524Z,43.30
2024-03-04T07:36:07.319Z,39.75
2024-03-04T07:38:35.712Z,39.83
2024-03-04T07:41:04.608Z,41.83
2024-03-04T07:43:32.824Z,41.25
2024-03-04T07:46:02.418Z,39.03
2024-03-04T07:48:30.471Z,38.03
2024-03-04T07:50:59.228Z,39.05
2024-03-04T07:53:27.308Z,37.75
2024-03-04T07:55:55.660Z,36.33
2024-03-04T07:58:23.852Z,36.80
2024-03-04T08:00:52.055Z,40.92
2024-03-04T08:03:21.546Z,37.22
2024-03-04T08:05:50.491Z,33.53
2024-03-04T08:08:22.682Z,37.85
2024-03-04T08:10:51.329Z,39.08
2024-03-04T08:13:19.615Z,32.63
2024-03-04T08:15:49.738Z,31.73
2024-03-04T08:18:17.977Z,35.50
2024-03-04T08:20:49.237Z,34.00
2024-03-04T08:23:17.428Z,33.10
2024-03-04T08:25:45.693Z,35.00
2024-03-04T08:28:20.142Z,31.63
2024-03-04T08:30:56.522Z,29.13
2024-03-04T08:33:24.593Z,31.90
2024-03-04T08:35:54.073Z,29.67
2024-03-04T08:38:22.515Z,32.50
2024-03-04T08:40:50.701Z,29.33
2024-03-04T08:43:18.792Z,31.48
2024-03-04T08:45:46.958Z,35.75
2024-03-04T08:48:15.449Z,27.63
2024-03-04T08:50:44.560Z,29.33
2024-03-04T08:53:14.039Z,28.50
2024-03-04T08:55:42.234Z,26.75
2024-03-04T08:58:10.408Z,29.13
2024-03-04T09:00:38.608Z,27.92
2024-03-04T09:03:08.192Z,28.40
2024-03-04T09:05:37.157Z,27.30
2024-03-04T09:08:05.907Z,31.02
2024-03-04T09:10:37.711Z,28.17
2024-03-04T09:13:07.938Z,28.60
2024-03-04T09:15:36.076Z,33.28
2024-03-04T09:18:06.199Z,30.45
2024-03-04T09:20:34.357Z,37.22
2024-03-04T09:23:02.482Z,30.73
2024-03-04T09:25:30.872Z,36.72
2024-03-04T09:28:00.497Z,34.90
2024-03-04T09:30:29.103Z,34.97
2024-03-04T09:32:57.352Z,33.38
2024-03-04T09:35:25.635Z,32.13
2024-03-04T09:37:54.118Z,33.53
2024-03-04T09:40:22.740Z,29.50
2024-03-04T09:42:51.419Z,29.08
2024-03-04T09:45:21.435Z,32.97
2024-03-04T09:47:53.327Z,31.45
2024-03-04T09:50:23.776Z,34.53
2024-03-04T09:52:52.863Z,31.90
2024-03-04T09:55:21.412Z,30.20
2024-03-04T09:57:50.764Z,29.17
2024-03-04T10:00:20.773Z,30.58
2024-03-04T10:02:48.925Z,32.88
2024-03-04T10:05:17.805Z,31.02
2024-03-04T10:07:46.737Z,29.40
2024-03-04T10:10:16.224Z,28.73
2024-03-04T10:12:44.397Z,28.33
2024-03-04T10:15:13.844Z,30.98
2024-03-04T10:17:43.414Z,29.95
2024-03-04T10:20:14.480Z,31.92
2024-03-04T10:22:43.592Z,30.95
2024-03-04T10:25:13.315Z,32.45
2024-03-04T10:27:43.334Z,36.58
2024-03-04T10:30:13.062Z,33.45
2024-03-04T10:32:46.998Z,34.63
2024-03-04T10:35:15.781Z,32.88
2024-03-04T10:37:44.078Z,30.60
2024-03-04T10:40:13.034Z,29.35
2024-03-04T10:42:42.141Z,32.70
2024-03-04T10:45:13.249Z,33.47
2024-03-04T10:47:45.573Z,26.75
2024-03-04T10:50:14.361Z,29.80
2024-03-04T10:52:43.040Z,35.03
2024-03-04T10:55:12.993Z,34.03
2024-03-04T10:57:44.799Z,33.47
2024-03-04T11:00:21.571Z,31.13
2024-03-04T11:02:58.814Z,32.22
2024-03-04T11:05:27.987Z,31.85
2024-03-04T11:08:01.277Z,29.13
2024-03-04T11:10:32.996Z,26.50
2024-03-04T11:13:11.887Z,29.05
2024-03-04T11:15:57.648Z,31.60
2024-03-04T11:18:42.142Z,31.55
2024-03-04T11:21:10.538Z,29.35
2024-03-04T11:23:39.125Z,30.88
2024-03-04T11:26:08.421Z,31.90
2024-03-04T11:28:40.202Z,30.40
2024-03-04T11:31:12.147Z,37.20
2024-03-04T11:33:43.180Z,31.75
2024-03-04T11:36:12.319Z,32.33
2024-03-04T11:38:45.507Z,36.28
2024-03-04T11:41:14.488Z,47.78
2024-03-04T11:43:46.509Z,45.72
2024-03-04T11:46:15.940Z,51.15
2024-03-04T11:48:47.586Z,48.03
2024-03-04T11:51:16.995Z,59.63
2024-03-04T11:53:46.282Z,56.63
2024-03-04T11:56:15.386Z,56.53
2024-03-04T11:58:43.703Z,57.20
2024-03-04T12:01:19.291Z,52.95
2024-03-04T12:03:55.478Z,47.67
2024-03-04T12:06:23.733Z,55.88
2024-03-04T12:09:09.343Z,48.83
2024-03-04T12:11:41.716Z,54.47
2024-03-04T12:14:09.967Z,55.70
2024-03-04T12:16:40.148Z,52.58
2024-03-04T12:19:09.841Z,56.67
2024-03-04T12:21:38.778Z,56.03
2024-03-04T12:24:08.250Z,59.45
2024-03-04T12:26:36.995Z,56.25
2024-03-04T12:29:08.199Z,56.28
2024-03-04T12:31:39.007Z,51.97
2024-03-04T12:34:10.080Z,48.72
2024-03-04T12:36:44.438Z,57.85
2024-03-04T12:39:15.336Z,50.40
2024-03-04T12:41:43.579Z,50.92
2024-03-04T12:44:11.959Z,46.30
2024-03-04T12:46:40.107Z,43.42
2024-03-04T12:49:10.229Z,43.78
2024-03-04T12:51:38.361Z,40.40
2024-03-04T12:54:06.593Z,45.15
2024-03-04T12:56:34.754Z,37.88
2024-03-04T12:59:03.402Z,39.53
2024-03-04T13:01:31.725Z,41.00
2024-03-04T13:04:00.556Z,43.10
2024-03-04T13:06:30.008Z,42.30
2024-03-04T13:08:58.242Z,39.42
2024-03-04T13:11:26.576Z,46.67
2024-03-04T13:13:54.655Z,44.33
2024-03-04T13:16:22.756Z,44.50
2024-03-04T13:18:50.861Z,41.85
2024-03-04T13:21:19.109Z,42.63
2024-03-04T13:23:49.409Z,41.83
2024-03-04T13:26:18.197Z,32.78
2024-03-04T13:28:46.311Z,34.83
2024-03-04T13:31:14.510Z,31.20
2024-03-04T13:33:43.244Z,31.98
2024-03-04T13:36:11.733Z,31.83
2024-03-04T13:38:39.806Z,22.65
2024-03-04T13:41:09.308Z,25.90
2024-03-04T13:43:37.479Z,25.52
2024-03-04T13:46:07.928Z,25.17
2024-03-04T13:48:36.849Z,23.40
2024-03-04T13:51:05.478Z,20.30
2024-03-04T13:53:33.569Z,22.17
2024-03-04T13:56:03.838Z,19.67
2024-03-04T13:58:33.381Z,20.40
2024-03-04T14:01:01.803Z,23.10
2024-03-04T14:03:29.955Z,23.73
2024-03-04T14:05:58.055Z,25.17
2024-03-04T14:08:26.223Z,21.90
2024-03-04T14:10:54.748Z,21.65
2024-03-04T14:13:22.905Z,19.73
2024-03-04T14:15:52.885Z,20.83
2024-03-04T14:18:20.986Z,21.30
2024-03-04T14:20:50.308Z,21.95
2024-03-04T14:23:19.095Z,22.02
2024-03-04T14:25:47.397Z,19.60
2024-03-04T14:28:15.746Z,16.00
2024-03-04T14:30:43.793Z,16.65
2024-03-04T14:33:13.263Z,18.15
2024-03-04T14:35:41.729Z,19.05
2024-03-04T14:38:09.744Z,20.52
2024-03-04T14:40:37.878Z,18.00
2024-03-04T14:43:06.196Z,22.42
2024-03-04T14:45:34.539Z,18.88
2024-03-04T14:48:02.834Z,19.75
2024-03-04T14:50:32.702Z,16.98
2024-03-04T14:53:01.381Z,21.58
2024-03-04T14:55:29.558Z,20.73
2024-03-04T14:57:57.711Z,18.13
2024-03-04T15:00:26.392Z,20.60
2024-03-04T15:02:54.484Z,20.52
2024-03-04T15:05:24.115Z,21.55
2024-03-04T15:07:53.614Z,22.40
2024-03-04T15:10:21.813Z,21.63
2024-03-04T15:12:49.903Z,23.70
2024-03-04T15:15:18.760Z,22.73
2024-03-04T15:17:47.511Z,18.88
2024-03-04T15:20:18.938Z,18.25
2024-03-04T15:22:47.913Z,20.95
2024-03-04T15:25:17.846Z,20.00
2024-03-04T15:27:47.600Z,19.98
2024-03-04T15:30:16.737Z,24.25
2024-03-04T15:32:46.159Z,20.73
2024-03-04T15:35:15.428Z,24.08
2024-03-04T15:37:44.493Z,21.63
2024-03-04T15:40:14.950Z,27.88
2024-03-04T15:42:44.979Z,23.58
2024-03-04T15:45:13.898Z,22.58
2024-03-04T15:47:42.153Z,24.27
2024-03-04T15:50:16.379Z,23.33
2024-03-04T15:52:46.441Z,28.55
2024-03-04T15:55:15.692Z,25.40
2024-03-04T15:57:45.871Z,27.42
2024-03-04T16:00:15.745Z,26.48
2024-03-04T16:02:44.547Z,29.38
2024-03-04T16:05:14.621Z,28.38
2024-03-04T16:07:44.050Z,38.92
2024-03-04T16:10:12.490Z,27.50
2024-03-04T16:12:41.135Z,29.70
2024-03-04T16:15:11.908Z,26.02
2024-03-04T16:17:40.121Z,23.73
2024-03-04T16:20:10.841Z,26.17
2024-03-04T16:22:39.140Z,28.10
2024-03-04T16:25:08.334Z,29.83
2024-03-04T16:27:36.624Z,29.42
2024-03-04T16:30:05.389Z,29.50
2024-03-04T16:32:35.441Z,31.75
2024-03-04T16:35:03.868Z,26.50
2024-03-04T16:37:33.837Z,30.70
2024-03-04T16:40:03.902Z,32.67
2024-03-04T16:42:32.101Z,34.58
2024-03-04T16:45:00.311Z,28.67
2024-03-04T16:47:28.450Z,28.33
2024-03-04T16:49:58.293Z,33.08
2024-03-04T16:52:26.470Z,30.08
2024-03-04T16:54:55.279Z,30.90
2024-03-04T16:57:23.417Z,29.23
2024-03-04T16:59:51.584Z,35.42
2024-03-04T17:02:20.692Z,32.78
2024-03-04T17:04:49.845Z,30.67
2024-03-04T17:07:20.282Z,31.35
2024-03-04T17:09:48.804Z,32.67
2024-03-04T17:12:16.942Z,41.22
2024-03-04T17:14:45.434Z,35.17
2024-03-04T17:17:13.649Z,30.88
2024-03-04T17:19:42.334Z,37.28
2024-03-04T17:22:10.786Z,38.60
2024-03-04T17:24:41.151Z,32.42
2024-03-04T17:27:09.266Z,37.78
2024-03-04T17:29:38.698Z,35.42
2024-03-04T17:32:08.569Z,32.95
2024-03-04T17:34:36.997Z,31.30
2024-03-04T17:37:05.705Z,28.60
2024-03-04T17:39:34.451Z,32.00
2024-03-04T17:42:04.115Z,28.63
2024-03-04T17:44:32.207Z,27.58
2024-03-04T17:47:00.484Z,31.60
2024-03-04T17:49:28.825Z,32.17
2024-03-04T17:51:57.365Z,34.47
2024-03-04T17:54:25.554Z,34.28
2024-03-04T17:56:53.672Z,31.15
2024-03-04T17:59:23.200Z,32.72
2024-03-04T18:01:54.148Z,34.22
2024-03-04T18:04:22.510Z,36.25
2024-03-04T18:06:50.688Z,30.92
2024-03-04T18:09:18.849Z,33.53
2024-03-04T18:11:47.053Z,32.17
2024-03-04T18:14:16.523Z,30.20
2024-03-04T18:16:47.202Z,37.55
2024-03-04T18:19:15.725Z,40.13
2024-03-04T18:21:44.899Z,34.05
2024-03-04T18:24:13.501Z,34.65
2024-03-04T18:26:44.558Z,34.75
2024-03-04T18:29:13.517Z,34.78
2024-03-04T18:31:41.722Z,38.28
2024-03-04T18:34:15.244Z,33.28
2024-03-04T18:36:44.922Z,38.53
2024-03-04T18:39:13.088Z,35.40
2024-03-04T18:41:41.223Z,37.38
2024-03-04T18:44:09.629Z,38.55
2024-03-04T18:46:37.842Z,35.90
2024-03-04T18:49:06.056Z,36.85
2024-03-04T18:51:35.518Z,39.55
2024-03-04T18:54:04.394Z,35.17
2024-03-04T18:56:32.556Z,36.95
2024-03-04T18:59:02.010Z,32.30
2024-03-04T19:01:30.902Z,36.78
2024-03-04T19:03:59.085Z,38.35
2024-03-04T19:06:28.661Z,35.20
2024-03-04T19:08:58.194Z,35.25
2024-03-04T19:11:26.532Z,32.03
2024-03-04T19:13:55.048Z,35.38
2024-03-04T19:16:23.624Z,43.17
2024-03-04T19:18:51.873Z,36.80
2024-03-04T19:21:20.906Z,35.60
2024-03-04T19:23:49.074Z,38.17
2024-03-04T19:26:20.464Z,37.85
2024-03-04T19:28:49.525Z,38.95
2024-03-04T19:31:22.429Z,31.50
2024-03-04T19:33:53.787Z,38.80
2024-03-04T19:36:22.364Z,31.15
2024-03-04T19:38:51.008Z,32.30
2024-03-04T19:41:21.889Z,33.28
2024-03-04T19:43:50.960Z,32.75
2024-03-04T19:46:20.056Z,31.35
2024-03-04T19:48:49.630Z,28.10
2024-03-04T19:51:20.049Z,26.95
2024-03-04T19:53:48.271Z,28.13
2024-03-04T19:56:16.929Z,37.60
2024-03-04T19:58:47.326Z,37.22
2024-03-04T20:01:16.542Z,38.15
2024-03-04T20:03:46.037Z,29.80
2024-03-04T20:06:14.643Z,35.95
2024-03-04T20:08:43.052Z,30.23
2024-03-04T20:11:13.308Z,30.83
2024-03-04T20:13:42.796Z,30.35
2024-03-04T20:16:14.721Z,30.70
2024-03-04T20:18:43.125Z,37.53
2024-03-04T20:21:12.456Z,32.92
2024-03-04T20:23:41.969Z,36.17
2024-03-04T20:26:10.301Z,29.95
2024-03-04T20:28:39.135Z,31.85
2024-03-04T20:31:07.413Z,34.17
2024-03-04T20:33:37.010Z,31.65
2024-03-04T20:36:08.324Z,35.30
2024-03-04T20:38:36.514Z,31.63
2024-03-04T20:41:06.959Z,35.45
2024-03-04T20:43:35.150Z,30.35
2024-03-04T20:46:03.650Z,33.03
2024-03-04T20:48:31.797Z,29.33
2024-03-04T20:51:01.263Z,27.77
2024-03-04T20:53:29.941Z,29.33
2024-03-04T20:55:58.091Z,32.67
2024-03-04T20:58:26.285Z,31.55
2024-03-04T21:00:54.410Z,28.40
2024-03-04T21:03:23.307Z,25.95
2024-03-04T21:05:51.364Z,27.48
2024-03-04T21:08:20.852Z,29.15
2024-03-04T21:10:49.275Z,29.17
2024-03-04T21:13:17.631Z,30.25
2024-03-04T21:15:45.787Z,28.83
2024-03-04T21:18:14.166Z,26.15
2024-03-04T21:20:43.295Z,28.10
2024-03-04T21:23:11.683Z,27.15
2024-03-04T21:25:43.582Z,24.55
2024-03-04T21:28:11.835Z,26.52
2024-03-04T21:30:40.206Z,27.10
2024-03-04T21:33:08.417Z,26.55
2024-03-04T21:35:36.626Z,26.27
2024-03-04T21:38:05.434Z,25.98
2024-03-04T21:40:33.802Z,26.85
2024-03-04T21:43:03.351Z,32.03
2024-03-04T21:45:31.639Z,32.05
2024-03-04T21:47:59.758Z,29.95
2024-03-04T21:50:27.835Z,28.63
2024-03-04T21:52:56.248Z,26.15
2024-03-04T21:55:24.524Z,24.65
2024-03-04T21:57:52.642Z,23.58
2024-03-04T22:00:23.511Z,24.45
2024-03-04T22:02:51.921Z,26.23
2024-03-04T22:05:20.365Z,29.92
2024-03-04T22:07:49.057Z,35.17
2024-03-04T22:10:17.510Z,27.13
2024-03-04T22:12:45.923Z,30.73
2024-03-04T22:15:14.170Z,24.30
2024-03-04T22:17:43.706Z,27.65
2024-03-04T22:20:13.916Z,27.25
2024-03-04T22:22:42.661Z,33.22
2024-03-04T22:25:11.048Z,38.35
2024-03-04T22:27:39.204Z,36.70
2024-03-04T22:30:10.118Z,32.47
2024-03-04T22:32:39.902Z,33.08
2024-03-04T22:35:11.624Z,33.25
2024-03-04T22:37:39.763Z,37.03
2024-03-04T22:40:09.672Z,34.63
2024-03-04T22:42:37.967Z,32.70
2024-03-04T22:45:06.542Z,32.30
2024-03-04T22:47:34.840Z,30.17
2024-03-04T22:50:03.116Z,34.55
2024-03-04T22:52:33.169Z,32.40
2024-03-04T22:55:02.308Z,33.67
2024-03-04T22:57:31.132Z,32.58
2024-03-04T23:00:00.192Z,28.38
2024-03-04T23:02:28.753Z,29.77
2024-03-04T23:04:57.952Z,32.15
2024-03-04T23:07:28.140Z,35.65
2024-03-04T23:10:00.260Z,31.98
2024-03-04T23:12:29.080Z,31.92
2024-03-04T23:14:57.395Z,34.28
2024-03-04T23:17:25.570Z,32.15
2024-03-04T23:19:53.804Z,34.97
2024-03-04T23:22:21.978Z,41.10
2024-03-04T23:24:51.746Z,57.15
2024-03-04T23:27:21.196Z,51.53
2024-03-04T23:29:49.798Z,46.40
2024-03-04T23:32:17.881Z,44.70
2024-03-04T23:34:46.693Z,44.60
2024-03-04T23:37:15.225Z,43.30
2024-03-04T23:39:43.400Z,47.50
2024-03-04T23:42:11.982Z,55.75
2024-03-04T23:44:41.760Z,50.55
2024-03-04T23:47:09.925Z,47.78
2024-03-04T23:49:38.138Z,42.88
2024-03-04T23:52:06.669Z,51.60
2024-03-04T23:54:35.426Z,44.00
2024-03-04T23:57:04.094Z,50.72
2024-03-04T23:59:32.548Z,43.13
